Time;durP1;ratioP1;P1;durP2;ratioP2;P2;SDS_P1;SDS_P2;PMS_P1;PMS_P2;Temp;Humidity;BMP_temperature;BMP_pressure;BME280_temperature;BME280_humidity;BME280_pressure;Samples;Min_cycle;Max_cycle;Signal;HPM_P1;HPM_P2
2022/05/04 00:00:35;;;;;;;9.050001;8.15;;;;;;;10.03;100;95139.23;;;;
2022/05/04 00:01:36;;;;;;;9.650002;8.349998;;;;;;;10.02;100;95132.31;;;;
2022/05/04 00:02:36;;;;;;;9.650002;8.349998;;;;;;;10.02;100;95132.31;;;;
2022/05/04 00:03:39;;;;;;;9.650002;8.349998;;;;;;;10.02;100;95132.31;;;;
2022/05/04 00:04:39;;;;;;;9.650002;8.349998;;;;;;;10.02;100;95132.31;;;;
2022/05/04 00:05:40;;;;;;;9.650002;8.349998;;;;;;;10.02;100;95132.31;;;;
2022/05/04 00:06:40;;;;;;;9.650002;8.349998;;;;;;;10.02;100;95132.31;;;;
2022/05/04 00:07:41;;;;;;;9.650002;8.349998;;;;;;;10.02;100;95132.31;;;;
2022/05/04 00:08:41;;;;;;;9.650002;8.349998;;;;;;;10.02;100;95132.31;;;;
2022/05/04 00:09:42;;;;;;;9.650002;8.349998;;;;;;;10.02;100;95132.31;;;;
2022/05/04 00:10:42;;;;;;;9.650002;8.349998;;;;;;;10.02;100;95132.31;;;;
2022/05/04 00:11:44;;;;;;;9.650002;8.349998;;;;;;;10.02;100;95132.31;;;;
2022/05/04 00:12:44;;;;;;;13.75;11.3;;;;;;;10.1;100;95125.22;;;;
2022/05/04 00:13:45;;;;;;;13.75;11.3;;;;;;;10.1;100;95125.22;;;;
2022/05/04 00:14:45;;;;;;;13.75;11.3;;;;;;;10.1;100;95125.22;;;;
2022/05/04 00:15:46;;;;;;;13.75;11.3;;;;;;;10.1;100;95125.22;;;;
2022/05/04 00:16:46;;;;;;;13.75;11.3;;;;;;;10.1;100;95125.22;;;;
2022/05/04 00:17:47;;;;;;;13.75;11.3;;;;;;;10.1;100;95125.22;;;;
2022/05/04 00:18:47;;;;;;;13.75;11.3;;;;;;;10.1;100;95125.22;;;;
2022/05/04 00:19:48;;;;;;;13.75;11.3;;;;;;;10.1;100;95125.22;;;;
2022/05/04 00:20:48;;;;;;;13.75;11.3;;;;;;;10.1;100;95125.22;;;;
2022/05/04 00:21:49;;;;;;;13.75;11.3;;;;;;;10.1;100;95125.22;;;;
2022/05/04 00:22:49;;;;;;;16.45;13.5;;;;;;;10.13;100;95129.75;;;;
2022/05/04 00:23:50;;;;;;;16.45;13.5;;;;;;;10.13;100;95129.75;;;;
2022/05/04 00:24:50;;;;;;;16.45;13.5;;;;;;;10.13;100;95129.75;;;;
2022/05/04 00:25:51;;;;;;;16.45;13.5;;;;;;;10.13;100;95129.75;;;;
2022/05/04 00:26:52;;;;;;;16.45;13.5;;;;;;;10.13;100;95129.75;;;;
2022/05/04 00:27:52;;;;;;;16.45;13.5;;;;;;;10.13;100;95129.75;;;;
2022/05/04 00:28:53;;;;;;;16.45;13.5;;;;;;;10.13;100;95129.75;;;;
2022/05/04 00:29:53;;;;;;;16.45;13.5;;;;;;;10.13;100;95129.75;;;;
2022/05/04 00:30:54;;;;;;;16.45;13.5;;;;;;;10.13;100;95129.75;;;;
2022/05/04 00:31:54;;;;;;;16.45;13.5;;;;;;;10.13;100;95129.75;;;;
2022/05/04 00:32:55;;;;;;;16.45;13.5;;;;;;;10.13;100;95129.75;;;;
2022/05/04 00:33:55;;;;;;;15.8;13.9;;;;;;;10.2;100;95125.84;;;;
2022/05/04 00:34:56;;;;;;;15.8;13.9;;;;;;;10.2;100;95125.84;;;;
2022/05/04 00:35:57;;;;;;;15.8;13.9;;;;;;;10.2;100;95125.84;;;;
2022/05/04 00:37:01;;;;;;;15.8;13.9;;;;;;;10.2;100;95125.84;;;;
2022/05/04 00:38:02;;;;;;;15.8;13.9;;;;;;;10.2;100;95125.84;;;;
2022/05/04 00:39:02;;;;;;;15.8;13.9;;;;;;;10.2;100;95125.84;;;;
2022/05/04 00:40:03;;;;;;;15.8;13.9;;;;;;;10.2;100;95125.84;;;;
2022/05/04 00:41:05;;;;;;;15.8;13.9;;;;;;;10.2;100;95125.84;;;;
2022/05/04 00:42:06;;;;;;;15.8;13.9;;;;;;;10.2;100;95125.84;;;;
2022/05/04 00:43:09;;;;;;;15.8;13.9;;;;;;;10.2;100;95125.84;;;;
2022/05/04 00:44:20;;;;;;;16.8;14.5;;;;;;;10.2;100;95131.66;;;;
2022/05/04 00:45:20;;;;;;;16.8;14.5;;;;;;;10.2;100;95131.66;;;;
2022/05/04 00:46:21;;;;;;;16.8;14.5;;;;;;;10.2;100;95131.66;;;;
2022/05/04 00:47:22;;;;;;;16.8;14.5;;;;;;;10.2;100;95131.66;;;;
2022/05/04 00:48:23;;;;;;;16.8;14.5;;;;;;;10.2;100;95131.66;;;;
2022/05/04 00:49:24;;;;;;;16.8;14.5;;;;;;;10.2;100;95131.66;;;;
2022/05/04 00:50:24;;;;;;;16.8;14.5;;;;;;;10.2;100;95131.66;;;;
2022/05/04 00:51:25;;;;;;;16.8;14.5;;;;;;;10.2;100;95131.66;;;;
2022/05/04 00:52:26;;;;;;;16.8;14.5;;;;;;;10.2;100;95131.66;;;;
2022/05/04 00:53:26;;;;;;;16.8;14.5;;;;;;;10.2;100;95131.66;;;;
2022/05/04 00:54:27;;;;;;;16.15;14;;;;;;;10.26;100;95135.71;;;;
2022/05/04 00:55:28;;;;;;;16.15;14;;;;;;;10.26;100;95135.71;;;;
2022/05/04 00:56:29;;;;;;;16.15;14;;;;;;;10.26;100;95135.71;;;;
2022/05/04 01:02:39;;;;;;;16.15;14;;;;;;;10.26;100;95135.71;;;;
2022/05/04 01:03:41;;;;;;;16.15;14;;;;;;;10.26;100;95135.71;;;;
2022/05/04 01:04:41;;;;;;;16.15;14;;;;;;;10.26;100;95135.71;;;;
2022/05/04 01:05:43;;;;;;;18.55;15.4;;;;;;;10.18;100;95133.76;;;;
2022/05/04 01:06:43;;;;;;;18.55;15.4;;;;;;;10.18;100;95133.76;;;;
2022/05/04 01:07:44;;;;;;;18.55;15.4;;;;;;;10.18;100;95133.76;;;;
2022/05/04 01:08:46;;;;;;;18.55;15.4;;;;;;;10.18;100;95133.76;;;;
2022/05/04 01:09:48;;;;;;;18.55;15.4;;;;;;;10.18;100;95133.76;;;;
2022/05/04 01:10:48;;;;;;;18.55;15.4;;;;;;;10.18;100;95133.76;;;;
2022/05/04 01:11:48;;;;;;;18.55;15.4;;;;;;;10.18;100;95133.76;;;;
2022/05/04 01:12:49;;;;;;;18.55;15.4;;;;;;;10.18;100;95133.76;;;;
2022/05/04 01:13:52;;;;;;;18.55;15.4;;;;;;;10.18;100;95133.76;;;;
2022/05/04 01:15:01;;;;;;;18.55;15.4;;;;;;;10.18;100;95133.76;;;;
2022/05/04 01:16:03;;;;;;;18.55;15.4;;;;;;;10.18;100;95133.76;;;;
2022/05/04 01:17:03;;;;;;;18.55;15.4;;;;;;;10.18;100;95133.76;;;;
2022/05/04 01:18:04;;;;;;;18.55;15.4;;;;;;;10.18;100;95133.76;;;;
2022/05/04 01:19:06;;;;;;;18.55;15.4;;;;;;;10.18;100;95133.76;;;;
2022/05/04 01:20:08;;;;;;;18.55;15.4;;;;;;;10.18;100;95133.76;;;;
2022/05/04 01:21:10;;;;;;;18.55;15.4;;;;;;;10.18;100;95133.76;;;;
2022/05/04 01:22:10;;;;;;;18.55;15.4;;;;;;;10.18;100;95133.76;;;;
2022/05/04 01:23:11;;;;;;;18.55;15.4;;;;;;;10.18;100;95133.76;;;;
2022/05/04 01:24:11;;;;;;;18.55;15.4;;;;;;;10.18;100;95133.76;;;;
2022/05/04 01:25:12;;;;;;;18.55;15.4;;;;;;;10.18;100;95133.76;;;;
2022/05/04 01:26:12;;;;;;;18.55;15.4;;;;;;;10.18;100;95133.76;;;;
2022/05/04 01:27:13;;;;;;;16.4;14.2;;;;;;;9.94;100;95133.07;;;;
2022/05/04 01:28:14;;;;;;;16.4;14.2;;;;;;;9.94;100;95133.07;;;;
2022/05/04 01:29:14;;;;;;;16.4;14.2;;;;;;;9.94;100;95133.07;;;;
2022/05/04 01:30:15;;;;;;;16.4;14.2;;;;;;;9.94;100;95133.07;;;;
2022/05/04 01:31:15;;;;;;;16.4;14.2;;;;;;;9.94;100;95133.07;;;;
2022/05/04 01:32:15;;;;;;;16.4;14.2;;;;;;;9.94;100;95133.07;;;;
2022/05/04 01:33:16;;;;;;;16.4;14.2;;;;;;;9.94;100;95133.07;;;;
2022/05/04 01:34:17;;;;;;;16.4;14.2;;;;;;;9.94;100;95133.07;;;;
2022/05/04 01:35:18;;;;;;;16.4;14.2;;;;;;;9.94;100;95133.07;;;;
2022/05/04 01:36:18;;;;;;;16.4;14.2;;;;;;;9.94;100;95133.07;;;;
2022/05/04 01:37:19;;;;;;;16.4;14.2;;;;;;;9.94;100;95133.07;;;;
2022/05/04 01:38:19;;;;;;;16.4;14.2;;;;;;;9.94;100;95133.07;;;;
2022/05/04 01:39:20;;;;;;;16.4;14.2;;;;;;;9.94;100;95133.07;;;;
2022/05/04 01:40:20;;;;;;;16.4;14.2;;;;;;;9.94;100;95133.07;;;;
2022/05/04 01:42:26;;;;;;;16.4;14.2;;;;;;;9.94;100;95133.07;;;;
2022/05/04 01:43:27;;;;;;;16.4;14.2;;;;;;;9.94;100;95133.07;;;;
2022/05/04 01:44:27;;;;;;;16.4;14.2;;;;;;;9.94;100;95133.07;;;;
2022/05/04 01:45:28;;;;;;;16.4;14.2;;;;;;;9.94;100;95133.07;;;;
2022/05/04 01:46:29;;;;;;;16.4;14.2;;;;;;;9.94;100;95133.07;;;;
2022/05/04 01:47:30;;;;;;;0;0;;;;;;;0;0;0;;;;
2022/05/04 01:48:30;;;;;;;0;0;;;;;;;0;0;0;;;;
2022/05/04 01:49:31;;;;;;;0;0;;;;;;;0;0;0;;;;
2022/05/04 01:50:31;;;;;;;0;0;;;;;;;0;0;0;;;;
2022/05/04 01:51:32;;;;;;;0;0;;;;;;;0;0;0;;;;
2022/05/04 01:52:32;;;;;;;0;0;;;;;;;0;0;0;;;;
2022/05/04 01:53:33;;;;;;;0;0;;;;;;;0;0;0;;;;
2022/05/04 01:54:34;;;;;;;0;0;;;;;;;0;0;0;;;;
2022/05/04 01:55:34;;;;;;;0;0;;;;;;;0;0;0;;;;
2022/05/04 01:56:35;;;;;;;0;0;;;;;;;0;0;0;;;;
2022/05/04 01:57:36;;;;;;;0;0;;;;;;;0;0;0;;;;
2022/05/04 01:58:36;;;;;;;0;0;;;;;;;0;0;0;;;;
2022/05/04 01:59:37;;;;;;;0;0;;;;;;;0;0;0;;;;
2022/05/04 02:00:37;;;;;;;0;0;;;;;;;0;0;0;;;;
2022/05/04 02:01:38;;;;;;;0;0;;;;;;;0;0;0;;;;
2022/05/04 02:02:39;;;;;;;0;0;;;;;;;0;0;0;;;;
2022/05/04 02:03:40;;;;;;;0;0;;;;;;;0;0;0;;;;
2022/05/04 02:04:40;;;;;;;0;0;;;;;;;0;0;0;;;;
2022/05/04 02:05:41;;;;;;;0;0;;;;;;;0;0;0;;;;
2022/05/04 02:06:42;;;;;;;0;0;;;;;;;0;0;0;;;;
2022/05/04 02:07:43;;;;;;;0;0;;;;;;;0;0;0;;;;
2022/05/04 02:08:45;;;;;;;0;0;;;;;;;0;0;0;;;;
2022/05/04 02:09:46;;;;;;;0;0;;;;;;;0;0;0;;;;
2022/05/04 02:10:47;;;;;;;0;0;;;;;;;0;0;0;;;;
2022/05/04 02:11:48;;;;;;;0;0;;;;;;;0;0;0;;;;
2022/05/04 02:12:48;;;;;;;0;0;;;;;;;0;0;0;;;;
2022/05/04 02:13:49;;;;;;;0;0;;;;;;;0;0;0;;;;
2022/05/04 02:14:49;;;;;;;0;0;;;;;;;0;0;0;;;;
2022/05/04 02:15:50;;;;;;;0;0;;;;;;;0;0;0;;;;
2022/05/04 02:16:50;;;;;;;0;0;;;;;;;0;0;0;;;;
2022/05/04 02:17:51;;;;;;;0;0;;;;;;;0;0;0;;;;
2022/05/04 02:18:51;;;;;;;0;0;;;;;;;0;0;0;;;;
2022/05/04 02:19:52;;;;;;;0;0;;;;;;;0;0;0;;;;
2022/05/04 02:20:52;;;;;;;0;0;;;;;;;0;0;0;;;;
2022/05/04 02:21:53;;;;;;;0;0;;;;;;;0;0;0;;;;
2022/05/04 02:22:53;;;;;;;0;0;;;;;;;0;0;0;;;;
2022/05/04 02:23:54;;;;;;;0;0;;;;;;;0;0;0;;;;
2022/05/04 02:24:54;;;;;;;0;0;;;;;;;0;0;0;;;;
2022/05/04 02:25:55;;;;;;;0;0;;;;;;;0;0;0;;;;
2022/05/04 02:26:55;;;;;;;0;0;;;;;;;0;0;0;;;;
2022/05/04 02:27:56;;;;;;;0;0;;;;;;;0;0;0;;;;
2022/05/04 02:28:56;;;;;;;0;0;;;;;;;0;0;0;;;;
2022/05/04 02:29:57;;;;;;;0;0;;;;;;;0;0;0;;;;
2022/05/04 02:30:57;;;;;;;0;0;;;;;;;0;0;0;;;;
2022/05/04 02:31:59;;;;;;;0;0;;;;;;;0;0;0;;;;
2022/05/04 02:33:00;;;;;;;0;0;;;;;;;0;0;0;;;;
2022/05/04 02:34:00;;;;;;;0;0;;;;;;;0;0;0;;;;
2022/05/04 02:40:32;;;;;;;0;0;;;;;;;0;0;0;;;;
2022/05/04 02:41:32;;;;;;;0;0;;;;;;;0;0;0;;;;
2022/05/04 02:42:33;;;;;;;0;0;;;;;;;0;0;0;;;;
2022/05/04 02:43:33;;;;;;;0;0;;;;;;;0;0;0;;;;
2022/05/04 02:44:34;;;;;;;0;0;;;;;;;0;0;0;;;;
2022/05/04 02:45:34;;;;;;;0;0;;;;;;;0;0;0;;;;
2022/05/04 02:46:35;;;;;;;0;0;;;;;;;0;0;0;;;;
2022/05/04 02:47:36;;;;;;;0;0;;;;;;;0;0;0;;;;
2022/05/04 02:48:38;;;;;;;0;0;;;;;;;0;0;0;;;;
2022/05/04 02:49:39;;;;;;;0;0;;;;;;;0;0;0;;;;
2022/05/04 02:50:39;;;;;;;0;0;;;;;;;0;0;0;;;;
2022/05/04 02:51:39;;;;;;;0;0;;;;;;;0;0;0;;;;
2022/05/04 02:52:40;;;;;;;0;0;;;;;;;0;0;0;;;;
2022/05/04 02:53:40;;;;;;;0;0;;;;;;;0;0;0;;;;
2022/05/04 02:54:41;;;;;;;0;0;;;;;;;0;0;0;;;;
2022/05/04 02:55:42;;;;;;;0;0;;;;;;;0;0;0;;;;
2022/05/04 02:56:42;;;;;;;0;0;;;;;;;0;0;0;;;;
2022/05/04 02:57:43;;;;;;;0;0;;;;;;;0;0;0;;;;
2022/05/04 02:58:43;;;;;;;0;0;;;;;;;0;0;0;;;;
2022/05/04 02:59:44;;;;;;;0;0;;;;;;;0;0;0;;;;
2022/05/04 03:00:45;;;;;;;0;0;;;;;;;0;0;0;;;;
2022/05/04 03:02:50;;;;;;;0;0;;;;;;;0;0;0;;;;
2022/05/04 03:03:51;;;;;;;0;0;;;;;;;0;0;0;;;;
2022/05/04 03:04:52;;;;;;;0;0;;;;;;;0;0;0;;;;
2022/05/04 03:05:52;;;;;;;0;0;;;;;;;0;0;0;;;;
2022/05/04 03:06:53;;;;;;;0;0;;;;;;;0;0;0;;;;
2022/05/04 03:07:53;;;;;;;0;0;;;;;;;0;0;0;;;;
2022/05/04 03:08:54;;;;;;;0;0;;;;;;;0;0;0;;;;
2022/05/04 03:09:54;;;;;;;0;0;;;;;;;0;0;0;;;;
2022/05/04 03:12:02;;;;;;;0;0;;;;;;;0;0;0;;;;
2022/05/04 03:13:03;;;;;;;0;0;;;;;;;0;0;0;;;;
2022/05/04 03:14:03;;;;;;;0;0;;;;;;;0;0;0;;;;
2022/05/04 03:15:04;;;;;;;0;0;;;;;;;0;0;0;;;;
2022/05/04 03:16:05;;;;;;;0;0;;;;;;;0;0;0;;;;
2022/05/04 03:17:05;;;;;;;0;0;;;;;;;0;0;0;;;;
2022/05/04 03:18:06;;;;;;;0;0;;;;;;;0;0;0;;;;
2022/05/04 03:19:07;;;;;;;0;0;;;;;;;0;0;0;;;;
2022/05/04 03:20:07;;;;;;;0;0;;;;;;;0;0;0;;;;
2022/05/04 03:21:09;;;;;;;0;0;;;;;;;0;0;0;;;;
2022/05/04 03:22:10;;;;;;;0;0;;;;;;;0;0;0;;;;
2022/05/04 03:23:10;;;;;;;0;0;;;;;;;0;0;0;;;;
2022/05/04 03:24:11;;;;;;;0;0;;;;;;;0;0;0;;;;
2022/05/04 03:25:11;;;;;;;0;0;;;;;;;0;0;0;;;;
2022/05/04 03:26:12;;;;;;;0;0;;;;;;;0;0;0;;;;
2022/05/04 03:27:13;;;;;;;0;0;;;;;;;0;0;0;;;;
2022/05/04 03:28:13;;;;;;;0;0;;;;;;;0;0;0;;;;
2022/05/04 03:29:14;;;;;;;0;0;;;;;;;0;0;0;;;;
2022/05/04 03:30:14;;;;;;;0;0;;;;;;;0;0;0;;;;
2022/05/04 03:31:15;;;;;;;0;0;;;;;;;0;0;0;;;;
2022/05/04 03:32:16;;;;;;;0;0;;;;;;;0;0;0;;;;
2022/05/04 03:33:16;;;;;;;0;0;;;;;;;0;0;0;;;;
2022/05/04 03:34:17;;;;;;;0;0;;;;;;;0;0;0;;;;
2022/05/04 03:35:17;;;;;;;0;0;;;;;;;0;0;0;;;;
2022/05/04 03:36:18;;;;;;;0;0;;;;;;;0;0;0;;;;
2022/05/04 03:37:18;;;;;;;0;0;;;;;;;0;0;0;;;;
2022/05/04 03:38:19;;;;;;;0;0;;;;;;;0;0;0;;;;
2022/05/04 03:39:19;;;;;;;0;0;;;;;;;0;0;0;;;;
2022/05/04 03:40:20;;;;;;;0;0;;;;;;;0;0;0;;;;
2022/05/04 03:41:20;;;;;;;0;0;;;;;;;0;0;0;;;;
2022/05/04 03:42:21;;;;;;;0;0;;;;;;;0;0;0;;;;
2022/05/04 03:43:21;;;;;;;0;0;;;;;;;0;0;0;;;;
2022/05/04 03:44:22;;;;;;;0;0;;;;;;;0;0;0;;;;
2022/05/04 03:45:23;;;;;;;0;0;;;;;;;0;0;0;;;;
2022/05/04 03:46:23;;;;;;;0;0;;;;;;;0;0;0;;;;
2022/05/04 03:47:26;;;;;;;0;0;;;;;;;0;0;0;;;;
2022/05/04 03:48:26;;;;;;;0;0;;;;;;;0;0;0;;;;
2022/05/04 03:49:26;;;;;;;0;0;;;;;;;0;0;0;;;;
2022/05/04 03:50:27;;;;;;;0;0;;;;;;;0;0;0;;;;
2022/05/04 03:51:28;;;;;;;0;0;;;;;;;0;0;0;;;;
2022/05/04 03:52:29;;;;;;;0;0;;;;;;;0;0;0;;;;
2022/05/04 03:53:29;;;;;;;0;0;;;;;;;0;0;0;;;;
2022/05/04 03:54:29;;;;;;;0;0;;;;;;;0;0;0;;;;
2022/05/04 03:55:30;;;;;;;0;0;;;;;;;0;0;0;;;;
2022/05/04 03:56:30;;;;;;;0;0;;;;;;;0;0;0;;;;
2022/05/04 03:57:31;;;;;;;0;0;;;;;;;0;0;0;;;;
2022/05/04 03:58:31;;;;;;;0;0;;;;;;;0;0;0;;;;
2022/05/04 03:59:32;;;;;;;0;0;;;;;;;0;0;0;;;;
2022/05/04 04:00:32;;;;;;;0;0;;;;;;;0;0;0;;;;
2022/05/04 04:01:33;;;;;;;0;0;;;;;;;0;0;0;;;;
2022/05/04 04:02:33;;;;;;;0;0;;;;;;;0;0;0;;;;
2022/05/04 04:03:34;;;;;;;0;0;;;;;;;0;0;0;;;;
2022/05/04 04:04:35;;;;;;;0;0;;;;;;;0;0;0;;;;
2022/05/04 04:05:35;;;;;;;0;0;;;;;;;0;0;0;;;;
2022/05/04 04:06:36;;;;;;;0;0;;;;;;;0;0;0;;;;
2022/05/04 04:07:36;;;;;;;0;0;;;;;;;0;0;0;;;;
2022/05/04 04:08:37;;;;;;;0;0;;;;;;;0;0;0;;;;
2022/05/04 04:09:37;;;;;;;0;0;;;;;;;0;0;0;;;;
2022/05/04 04:10:38;;;;;;;0;0;;;;;;;0;0;0;;;;
2022/05/04 04:11:38;;;;;;;0;0;;;;;;;0;0;0;;;;
2022/05/04 04:12:39;;;;;;;0;0;;;;;;;0;0;0;;;;
2022/05/04 04:13:40;;;;;;;0;0;;;;;;;0;0;0;;;;
2022/05/04 04:14:40;;;;;;;0;0;;;;;;;0;0;0;;;;
2022/05/04 04:15:41;;;;;;;0;0;;;;;;;0;0;0;;;;
2022/05/04 04:16:41;;;;;;;0;0;;;;;;;0;0;0;;;;
2022/05/04 04:17:42;;;;;;;0;0;;;;;;;0;0;0;;;;
2022/05/04 04:18:42;;;;;;;0;0;;;;;;;0;0;0;;;;
2022/05/04 04:19:42;;;;;;;0;0;;;;;;;0;0;0;;;;
2022/05/04 04:25:55;;;;;;;0;0;;;;;;;0;0;0;;;;
2022/05/04 04:26:56;;;;;;;0;0;;;;;;;0;0;0;;;;
2022/05/04 04:27:57;;;;;;;0;0;;;;;;;0;0;0;;;;
2022/05/04 04:28:58;;;;;;;0;0;;;;;;;0;0;0;;;;
2022/05/04 04:29:59;;;;;;;0;0;;;;;;;0;0;0;;;;
2022/05/04 04:30:59;;;;;;;0;0;;;;;;;0;0;0;;;;
2022/05/04 04:32:00;;;;;;;0;0;;;;;;;0;0;0;;;;
2022/05/04 04:33:01;;;;;;;0;0;;;;;;;0;0;0;;;;
2022/05/04 04:34:01;;;;;;;0;0;;;;;;;0;0;0;;;;
2022/05/04 04:35:03;;;;;;;0;0;;;;;;;0;0;0;;;;
2022/05/04 04:36:05;;;;;;;0;0;;;;;;;0;0;0;;;;
2022/05/04 04:37:06;;;;;;;0;0;;;;;;;0;0;0;;;;
2022/05/04 04:38:07;;;;;;;0;0;;;;;;;0;0;0;;;;
2022/05/04 04:39:07;;;;;;;0;0;;;;;;;0;0;0;;;;
2022/05/04 04:40:08;;;;;;;0;0;;;;;;;0;0;0;;;;
2022/05/04 04:41:09;;;;;;;0;0;;;;;;;0;0;0;;;;
2022/05/04 04:42:12;;;;;;;0;0;;;;;;;0;0;0;;;;
2022/05/04 04:43:14;;;;;;;0;0;;;;;;;0;0;0;;;;
2022/05/04 04:44:15;;;;;;;0;0;;;;;;;0;0;0;;;;
2022/05/04 04:45:15;;;;;;;0;0;;;;;;;0;0;0;;;;
2022/05/04 04:46:15;;;;;;;0;0;;;;;;;0;0;0;;;;
2022/05/04 04:47:16;;;;;;;0;0;;;;;;;0;0;0;;;;
2022/05/04 04:48:16;;;;;;;0;0;;;;;;;0;0;0;;;;
2022/05/04 04:49:17;;;;;;;0;0;;;;;;;0;0;0;;;;
2022/05/04 04:50:18;;;;;;;0;0;;;;;;;0;0;0;;;;
2022/05/04 04:51:18;;;;;;;0;0;;;;;;;0;0;0;;;;
2022/05/04 04:52:19;;;;;;;0;0;;;;;;;0;0;0;;;;
2022/05/04 04:53:20;;;;;;;0;0;;;;;;;0;0;0;;;;
2022/05/04 04:54:20;;;;;;;0;0;;;;;;;0;0;0;;;;
2022/05/04 04:55:21;;;;;;;0;0;;;;;;;0;0;0;;;;
2022/05/04 04:56:21;;;;;;;0;0;;;;;;;0;0;0;;;;
2022/05/04 04:57:22;;;;;;;0;0;;;;;;;0;0;0;;;;
2022/05/04 04:58:22;;;;;;;0;0;;;;;;;0;0;0;;;;
2022/05/04 04:59:23;;;;;;;0;0;;;;;;;0;0;0;;;;
2022/05/04 05:00:25;;;;;;;0;0;;;;;;;0;0;0;;;;
2022/05/04 05:01:25;;;;;;;0;0;;;;;;;0;0;0;;;;
2022/05/04 05:02:26;;;;;;;0;0;;;;;;;0;0;0;;;;
2022/05/04 05:03:26;;;;;;;0;0;;;;;;;0;0;0;;;;
2022/05/04 05:04:27;;;;;;;0;0;;;;;;;0;0;0;;;;
2022/05/04 05:05:27;;;;;;;0;0;;;;;;;0;0;0;;;;
2022/05/04 05:06:30;;;;;;;0;0;;;;;;;0;0;0;;;;
2022/05/04 05:07:30;;;;;;;0;0;;;;;;;0;0;0;;;;
2022/05/04 05:08:31;;;;;;;0;0;;;;;;;0;0;0;;;;
2022/05/04 05:09:31;;;;;;;0;0;;;;;;;0;0;0;;;;
2022/05/04 05:10:32;;;;;;;0;0;;;;;;;0;0;0;;;;
2022/05/04 05:11:32;;;;;;;0;0;;;;;;;0;0;0;;;;
2022/05/04 05:12:32;;;;;;;0;0;;;;;;;0;0;0;;;;
2022/05/04 05:16:06;;;;;;;0;0;;;;;;;0;0;0;;;;
2022/05/04 05:17:07;;;;;;;0;0;;;;;;;0;0;0;;;;
2022/05/04 05:18:07;;;;;;;0;0;;;;;;;0;0;0;;;;
2022/05/04 05:19:08;;;;;;;0;0;;;;;;;0;0;0;;;;
2022/05/04 05:20:08;;;;;;;0;0;;;;;;;0;0;0;;;;
2022/05/04 05:21:10;;;;;;;0;0;;;;;;;0;0;0;;;;
2022/05/04 05:22:10;;;;;;;0;0;;;;;;;0;0;0;;;;
2022/05/04 05:23:11;;;;;;;0;0;;;;;;;0;0;0;;;;
2022/05/04 05:24:12;;;;;;;0;0;;;;;;;0;0;0;;;;
2022/05/04 05:25:12;;;;;;;0;0;;;;;;;0;0;0;;;;
2022/05/04 05:26:12;;;;;;;0;0;;;;;;;0;0;0;;;;
2022/05/04 05:27:13;;;;;;;0;0;;;;;;;0;0;0;;;;
2022/05/04 05:28:14;;;;;;;0;0;;;;;;;0;0;0;;;;
2022/05/04 05:29:14;;;;;;;0;0;;;;;;;0;0;0;;;;
2022/05/04 05:30:15;;;;;;;0;0;;;;;;;0;0;0;;;;
2022/05/04 05:31:15;;;;;;;0;0;;;;;;;0;0;0;;;;
2022/05/04 05:32:16;;;;;;;0;0;;;;;;;0;0;0;;;;
2022/05/04 05:33:16;;;;;;;0;0;;;;;;;0;0;0;;;;
2022/05/04 05:34:17;;;;;;;0;0;;;;;;;0;0;0;;;;
2022/05/04 05:35:18;;;;;;;0;0;;;;;;;0;0;0;;;;
2022/05/04 05:36:18;;;;;;;0;0;;;;;;;0;0;0;;;;
2022/05/04 05:37:20;;;;;;;0;0;;;;;;;0;0;0;;;;
2022/05/04 05:38:21;;;;;;;0;0;;;;;;;0;0;0;;;;
2022/05/04 05:39:21;;;;;;;0;0;;;;;;;0;0;0;;;;
2022/05/04 05:40:22;;;;;;;0;0;;;;;;;0;0;0;;;;
2022/05/04 05:41:23;;;;;;;0;0;;;;;;;0;0;0;;;;
2022/05/04 05:42:23;;;;;;;0;0;;;;;;;0;0;0;;;;
2022/05/04 05:43:24;;;;;;;0;0;;;;;;;0;0;0;;;;
2022/05/04 05:44:24;;;;;;;0;0;;;;;;;0;0;0;;;;
2022/05/04 05:45:26;;;;;;;0;0;;;;;;;0;0;0;;;;
2022/05/04 05:46:28;;;;;;;0;0;;;;;;;0;0;0;;;;
2022/05/04 05:47:28;;;;;;;0;0;;;;;;;0;0;0;;;;
2022/05/04 05:48:29;;;;;;;0;0;;;;;;;0;0;0;;;;
2022/05/04 05:49:29;;;;;;;0;0;;;;;;;0;0;0;;;;
2022/05/04 05:50:30;;;;;;;0;0;;;;;;;0;0;0;;;;
2022/05/04 05:51:31;;;;;;;0;0;;;;;;;0;0;0;;;;
2022/05/04 05:52:31;;;;;;;0;0;;;;;;;0;0;0;;;;
2022/05/04 05:53:32;;;;;;;0;0;;;;;;;0;0;0;;;;
2022/05/04 05:54:32;;;;;;;0;0;;;;;;;0;0;0;;;;
2022/05/04 05:55:33;;;;;;;0;0;;;;;;;0;0;0;;;;
2022/05/04 05:56:34;;;;;;;0;0;;;;;;;0;0;0;;;;
2022/05/04 05:57:35;;;;;;;0;0;;;;;;;0;0;0;;;;
2022/05/04 05:58:35;;;;;;;0;0;;;;;;;0;0;0;;;;
2022/05/04 05:59:36;;;;;;;0;0;;;;;;;0;0;0;;;;
2022/05/04 06:00:36;;;;;;;0;0;;;;;;;0;0;0;;;;
2022/05/04 06:01:37;;;;;;;0;0;;;;;;;0;0;0;;;;
2022/05/04 06:02:38;;;;;;;0;0;;;;;;;0;0;0;;;;
2022/05/04 06:03:38;;;;;;;0;0;;;;;;;0;0;0;;;;
2022/05/04 06:04:39;;;;;;;0;0;;;;;;;0;0;0;;;;
2022/05/04 06:05:39;;;;;;;0;0;;;;;;;0;0;0;;;;
2022/05/04 06:06:40;;;;;;;0;0;;;;;;;0;0;0;;;;
2022/05/04 06:07:40;;;;;;;0;0;;;;;;;0;0;0;;;;
2022/05/04 06:08:41;;;;;;;0;0;;;;;;;0;0;0;;;;
2022/05/04 06:09:41;;;;;;;0;0;;;;;;;0;0;0;;;;
2022/05/04 06:10:42;;;;;;;0;0;;;;;;;0;0;0;;;;
2022/05/04 06:11:42;;;;;;;0;0;;;;;;;0;0;0;;;;
2022/05/04 06:12:44;;;;;;;0;0;;;;;;;0;0;0;;;;
2022/05/04 06:13:44;;;;;;;0;0;;;;;;;0;0;0;;;;
2022/05/04 06:14:45;;;;;;;0;0;;;;;;;0;0;0;;;;
2022/05/04 06:15:45;;;;;;;0;0;;;;;;;0;0;0;;;;
2022/05/04 06:16:46;;;;;;;0;0;;;;;;;0;0;0;;;;
2022/05/04 06:17:47;;;;;;;0;0;;;;;;;0;0;0;;;;
2022/05/04 06:18:48;;;;;;;0;0;;;;;;;0;0;0;;;;
2022/05/04 06:19:48;;;;;;;0;0;;;;;;;0;0;0;;;;
2022/05/04 06:20:49;;;;;;;0;0;;;;;;;0;0;0;;;;
2022/05/04 06:21:49;;;;;;;0;0;;;;;;;0;0;0;;;;
2022/05/04 06:22:50;;;;;;;0;0;;;;;;;0;0;0;;;;
2022/05/04 06:23:51;;;;;;;0;0;;;;;;;0;0;0;;;;
2022/05/04 06:24:51;;;;;;;0;0;;;;;;;0;0;0;;;;
2022/05/04 06:25:51;;;;;;;0;0;;;;;;;0;0;0;;;;
2022/05/04 06:26:52;;;;;;;0;0;;;;;;;0;0;0;;;;
2022/05/04 06:27:52;;;;;;;0;0;;;;;;;0;0;0;;;;
2022/05/04 06:28:53;;;;;;;0;0;;;;;;;0;0;0;;;;
2022/05/04 06:35:06;;;;;;;0;0;;;;;;;0;0;0;;;;
2022/05/04 06:36:07;;;;;;;0;0;;;;;;;0;0;0;;;;
2022/05/04 06:37:08;;;;;;;0;0;;;;;;;0;0;0;;;;
2022/05/04 06:38:10;;;;;;;0;0;;;;;;;0;0;0;;;;
2022/05/04 06:39:10;;;;;;;0;0;;;;;;;0;0;0;;;;
2022/05/04 06:40:11;;;;;;;0;0;;;;;;;0;0;0;;;;
2022/05/04 06:41:13;;;;;;;3.6;3.3;;;;;;;13.05;100;95196.83;;;;
2022/05/04 06:42:16;;;;;;;3.6;3.3;;;;;;;13.05;100;95196.83;;;;
2022/05/04 06:43:16;;;;;;;3.6;3.3;;;;;;;13.05;100;95196.83;;;;
2022/05/04 06:44:16;;;;;;;3.6;3.3;;;;;;;13.05;100;95196.83;;;;
2022/05/04 06:45:17;;;;;;;3.6;3.3;;;;;;;13.05;100;95196.83;;;;
2022/05/04 06:46:17;;;;;;;3.6;3.3;;;;;;;13.05;100;95196.83;;;;
2022/05/04 06:47:18;;;;;;;3.6;3.3;;;;;;;13.05;100;95196.83;;;;
2022/05/04 06:48:18;;;;;;;3.6;3.3;;;;;;;13.05;100;95196.83;;;;
2022/05/04 06:49:19;;;;;;;3.6;3.3;;;;;;;13.05;100;95196.83;;;;
2022/05/04 06:50:20;;;;;;;3.6;3.3;;;;;;;13.05;100;95196.83;;;;
2022/05/04 06:51:21;;;;;;;3.5;3.2;;;;;;;13.86;100;95202.03;;;;
2022/05/04 06:52:24;;;;;;;3.5;3.2;;;;;;;13.86;100;95202.03;;;;
2022/05/04 06:53:24;;;;;;;3.5;3.2;;;;;;;13.86;100;95202.03;;;;
2022/05/04 06:54:25;;;;;;;3.5;3.2;;;;;;;13.86;100;95202.03;;;;
2022/05/04 06:55:25;;;;;;;3.5;3.2;;;;;;;13.86;100;95202.03;;;;
2022/05/04 06:56:26;;;;;;;3.5;3.2;;;;;;;13.86;100;95202.03;;;;
2022/05/04 06:57:26;;;;;;;3.5;3.2;;;;;;;13.86;100;95202.03;;;;
2022/05/04 06:58:27;;;;;;;3.5;3.2;;;;;;;13.86;100;95202.03;;;;
2022/05/04 06:59:28;;;;;;;3.5;3.2;;;;;;;13.86;100;95202.03;;;;
2022/05/04 07:00:28;;;;;;;3.5;3.2;;;;;;;13.86;100;95202.03;;;;
2022/05/04 07:01:29;;;;;;;0;0;;;;;;;0;0;0;;;;
2022/05/04 07:02:30;;;;;;;0;0;;;;;;;0;0;0;;;;
2022/05/04 07:03:31;;;;;;;0;0;;;;;;;0;0;0;;;;
2022/05/04 07:04:32;;;;;;;0;0;;;;;;;0;0;0;;;;
2022/05/04 07:05:32;;;;;;;0;0;;;;;;;0;0;0;;;;
2022/05/04 07:06:33;;;;;;;0;0;;;;;;;0;0;0;;;;
2022/05/04 07:07:33;;;;;;;0;0;;;;;;;0;0;0;;;;
2022/05/04 07:08:34;;;;;;;0;0;;;;;;;0;0;0;;;;
2022/05/04 07:09:34;;;;;;;0;0;;;;;;;0;0;0;;;;
2022/05/04 07:10:35;;;;;;;0;0;;;;;;;0;0;0;;;;
2022/05/04 07:11:36;;;;;;;0;0;;;;;;;0;0;0;;;;
2022/05/04 07:12:36;;;;;;;0;0;;;;;;;0;0;0;;;;
2022/05/04 07:13:37;;;;;;;0;0;;;;;;;0;0;0;;;;
2022/05/04 07:14:38;;;;;;;0;0;;;;;;;0;0;0;;;;
2022/05/04 07:15:38;;;;;;;0;0;;;;;;;0;0;0;;;;
2022/05/04 07:16:40;;;;;;;0;0;;;;;;;0;0;0;;;;
2022/05/04 07:17:40;;;;;;;0;0;;;;;;;0;0;0;;;;
2022/05/04 07:18:41;;;;;;;0;0;;;;;;;0;0;0;;;;
2022/05/04 07:19:41;;;;;;;0;0;;;;;;;0;0;0;;;;
2022/05/04 07:20:41;;;;;;;0;0;;;;;;;0;0;0;;;;
2022/05/04 07:21:42;;;;;;;0;0;;;;;;;0;0;0;;;;
2022/05/04 07:22:43;;;;;;;0;0;;;;;;;0;0;0;;;;
2022/05/04 07:23:43;;;;;;;0;0;;;;;;;0;0;0;;;;
2022/05/04 07:24:43;;;;;;;0;0;;;;;;;0;0;0;;;;
2022/05/04 07:25:44;;;;;;;0;0;;;;;;;0;0;0;;;;
2022/05/04 07:26:45;;;;;;;0;0;;;;;;;0;0;0;;;;
2022/05/04 07:27:45;;;;;;;0;0;;;;;;;0;0;0;;;;
2022/05/04 07:28:46;;;;;;;0;0;;;;;;;0;0;0;;;;
2022/05/04 07:29:47;;;;;;;0;0;;;;;;;0;0;0;;;;
2022/05/04 07:30:48;;;;;;;0;0;;;;;;;0;0;0;;;;
2022/05/04 07:31:48;;;;;;;0;0;;;;;;;0;0;0;;;;
2022/05/04 07:32:49;;;;;;;0;0;;;;;;;0;0;0;;;;
2022/05/04 07:33:49;;;;;;;0;0;;;;;;;0;0;0;;;;
2022/05/04 07:34:50;;;;;;;0;0;;;;;;;0;0;0;;;;
2022/05/04 07:35:50;;;;;;;0;0;;;;;;;0;0;0;;;;
2022/05/04 07:36:51;;;;;;;0;0;;;;;;;0;0;0;;;;
2022/05/04 07:37:51;;;;;;;0;0;;;;;;;0;0;0;;;;
2022/05/04 07:38:52;;;;;;;0;0;;;;;;;0;0;0;;;;
2022/05/04 07:45:05;;;;;;;0;0;;;;;;;0;0;0;;;;
2022/05/04 07:46:08;;;;;;;0;0;;;;;;;0;0;0;;;;
2022/05/04 07:47:08;;;;;;;0;0;;;;;;;0;0;0;;;;
2022/05/04 07:48:09;;;;;;;0;0;;;;;;;0;0;0;;;;
2022/05/04 07:49:09;;;;;;;0;0;;;;;;;0;0;0;;;;
2022/05/04 07:50:11;;;;;;;0;0;;;;;;;0;0;0;;;;
2022/05/04 07:51:12;;;;;;;0;0;;;;;;;0;0;0;;;;
2022/05/04 07:52:13;;;;;;;0;0;;;;;;;0;0;0;;;;
2022/05/04 07:53:14;;;;;;;0;0;;;;;;;0;0;0;;;;
2022/05/04 07:54:15;;;;;;;0;0;;;;;;;0;0;0;;;;
2022/05/04 07:55:15;;;;;;;0;0;;;;;;;0;0;0;;;;
2022/05/04 07:56:16;;;;;;;0;0;;;;;;;0;0;0;;;;
2022/05/04 07:57:17;;;;;;;0;0;;;;;;;0;0;0;;;;
2022/05/04 07:58:17;;;;;;;0;0;;;;;;;0;0;0;;;;
2022/05/04 07:59:18;;;;;;;0;0;;;;;;;0;0;0;;;;
2022/05/04 08:05:29;;;;;;;0;0;;;;;;;0;0;0;;;;
2022/05/04 08:06:29;;;;;;;0;0;;;;;;;0;0;0;;;;
2022/05/04 08:07:30;;;;;;;0;0;;;;;;;0;0;0;;;;
2022/05/04 08:08:30;;;;;;;0;0;;;;;;;0;0;0;;;;
2022/05/04 08:09:34;;;;;;;0;0;;;;;;;0;0;0;;;;
2022/05/04 08:10:35;;;;;;;0;0;;;;;;;0;0;0;;;;
2022/05/04 08:11:35;;;;;;;0;0;;;;;;;0;0;0;;;;
2022/05/04 08:12:36;;;;;;;0;0;;;;;;;0;0;0;;;;
2022/05/04 08:13:36;;;;;;;0;0;;;;;;;0;0;0;;;;
2022/05/04 08:14:39;;;;;;;0;0;;;;;;;0;0;0;;;;
2022/05/04 08:15:39;;;;;;;0;0;;;;;;;0;0;0;;;;
2022/05/04 08:16:40;;;;;;;0;0;;;;;;;0;0;0;;;;
2022/05/04 08:17:40;;;;;;;0;0;;;;;;;0;0;0;;;;
2022/05/04 08:18:41;;;;;;;0;0;;;;;;;0;0;0;;;;
2022/05/04 08:19:41;;;;;;;0;0;;;;;;;0;0;0;;;;
2022/05/04 08:20:42;;;;;;;0;0;;;;;;;0;0;0;;;;
2022/05/04 08:21:43;;;;;;;0;0;;;;;;;0;0;0;;;;
2022/05/04 08:22:44;;;;;;;0;0;;;;;;;0;0;0;;;;
2022/05/04 08:23:44;;;;;;;0;0;;;;;;;0;0;0;;;;
2022/05/04 08:24:45;;;;;;;0;0;;;;;;;0;0;0;;;;
2022/05/04 08:25:46;;;;;;;0;0;;;;;;;0;0;0;;;;
2022/05/04 08:26:46;;;;;;;0;0;;;;;;;0;0;0;;;;
2022/05/04 08:27:46;;;;;;;0;0;;;;;;;0;0;0;;;;
2022/05/04 08:28:47;;;;;;;0;0;;;;;;;0;0;0;;;;
2022/05/04 08:29:47;;;;;;;0;0;;;;;;;0;0;0;;;;